Time,TemperatureF,DewpointF,PressureIn,WindDirection,WindDirectionDegrees,WindSpeedMPH,WindSpeedGustMPH,Humidity,HourlyPrecipIn,Conditions,Clouds,dailyrainin,SoftwareType,DateUTC
2013-03-04 00:00:00,22.4,17.2,30.06,NW,311,2.0,4.0,80,0.00,,---,0.00,VWS V12.07,2013-03-04 05:00:00,
2013-03-04 00:02:00,22.4,17.2,30.06,NW,311,2.0,4.0,80,0.00,,---,0.00,VWS V12.07,2013-03-04 05:02:00,
2013-03-04 00:05:00,22.4,17.2,30.06,NW,311,2.0,4.0,80,0.00,,---,0.00,VWS V12.07,2013-03-04 05:05:00,
2013-03-04 00:10:00,22.4,17.5,30.06,NW,311,2.0,4.0,81,0.00,,---,0.00,VWS V12.07,2013-03-04 05:10:00,
2013-03-04 00:15:00,22.4,17.5,30.06,NW,311,2.0,4.0,81,0.00,,---,0.00,VWS V12.07,2013-03-04 05:15:00,
2013-03-04 00:20:00,22.4,17.2,30.07,NW,311,2.0,4.0,80,0.00,,---,0.00,VWS V12.07,2013-03-04 05:20:00,
2013-03-04 00:25:00,22.2,17.0,30.07,NW,311,2.0,4.0,80,0.00,,---,0.00,VWS V12.07,2013-03-04 05:25:00,
2013-03-04 00:30:00,22.1,16.9,30.07,NW,311,2.0,4.0,80,0.00,,---,0.00,VWS V12.07,2013-03-04 05:30:00,
2013-03-04 00:36:00,22.1,16.9,30.07,NW,311,2.0,4.0,80,0.00,,---,0.00,VWS V12.07,2013-03-04 05:36:00,
2013-03-04 00:41:00,21.9,16.7,30.07,NW,311,2.0,4.0,80,0.00,,---,0.00,VWS V12.07,2013-03-04 05:41:00,
2013-03-04 00:46:00,21.9,16.7,30.08,NW,311,2.0,4.0,80,0.00,,---,0.00,VWS V12.07,2013-03-04 05:46:00,
2013-03-04 00:47:00,21.9,16.7,30.08,NW,311,2.0,4.0,80,0.00,,---,0.00,VWS V12.07,2013-03-04 05:47:00,
2013-03-04 00:52:00,21.8,16.9,30.08,NW,311,2.0,4.0,81,0.00,,---,0.00,VWS V12.07,2013-03-04 05:52:00,
2013-03-04 00:57:00,21.8,16.6,30.08,NW,311,2.0,4.0,80,0.00,,---,0.00,VWS V12.07,2013-03-04 05:57:00,
2013-03-04 01:02:00,21.4,16.2,30.08,NW,311,2.0,4.0,80,0.00,,---,0.00,VWS V12.07,2013-03-04 06:02:00,
2013-03-04 01:07:00,21.3,16.1,30.08,NW,311,2.0,4.0,80,0.00,,---,0.00,VWS V12.07,2013-03-04 06:07:00,
2013-03-04 01:12:00,21.3,16.4,30.08,NW,311,2.0,4.0,81,0.00,,---,0.00,VWS V12.07,2013-03-04 06:12:00,
2013-03-04 01:17:00,21.3,16.1,30.08,NW,311,2.0,4.0,80,0.00,,---,0.00,VWS V12.07,2013-03-04 06:17:00,
2013-03-04 01:22:00,21.1,15.9,30.08,NW,311,2.0,4.0,80,0.00,,---,0.00,VWS V12.07,2013-03-04 06:22:00,
2013-03-04 01:27:00,21.0,15.8,30.08,NW,311,2.0,4.0,80,0.00,,---,0.00,VWS V12.07,2013-03-04 06:27:00,
2013-03-04 01:32:00,21.0,16.1,30.08,NW,311,2.0,4.0,81,0.00,,---,0.00,VWS V12.07,2013-03-04 06:32:00,
2013-03-04 01:37:00,21.0,16.1,30.08,NW,311,2.0,4.0,81,0.00,,---,0.00,VWS V12.07,2013-03-04 06:37:00,
2013-03-04 01:42:00,21.0,16.1,30.08,NW,311,2.0,4.0,81,0.00,,---,0.00,VWS V12.07,2013-03-04 06:42:00,
2013-03-04 01:47:00,21.0,16.1,30.08,NW,311,2.0,4.0,81,0.00,,---,0.00,VWS V12.07,2013-03-04 06:47:00,
2013-03-04 01:52:00,21.0,16.1,30.08,NW,311,2.0,4.0,81,0.00,,---,0.00,VWS V12.07,2013-03-04 06:52:00,
2013-03-04 01:57:00,21.0,16.1,30.08,NW,311,2.0,4.0,81,0.00,,---,0.00,VWS V12.07,2013-03-04 06:57:00,
2013-03-04 02:02:00,20.8,15.6,30.08,NW,311,2.0,4.0,80,0.00,,---,0.00,VWS V12.07,2013-03-04 07:02:00,
2013-03-04 02:07:00,20.5,15.3,30.08,NW,311,2.0,4.0,80,0.00,,---,0.00,VWS V12.07,2013-03-04 07:07:00,
2013-03-04 02:12:00,20.3,15.4,30.08,NW,311,2.0,4.0,81,0.00,,---,0.00,VWS V12.07,2013-03-04 07:12:00,
2013-03-04 02:17:00,20.0,15.1,30.09,NW,311,2.0,4.0,81,0.00,,---,0.00,VWS V12.07,2013-03-04 07:17:00,
2013-03-04 02:22:00,19.9,15.0,30.09,NW,311,2.0,4.0,81,0.00,,---,0.00,VWS V12.07,2013-03-04 07:22:00,
2013-03-04 02:27:00,19.7,14.8,30.09,NW,311,2.0,4.0,81,0.00,,---,0.00,VWS V12.07,2013-03-04 07:27:00,
2013-03-04 02:32:00,19.7,15.1,30.10,NW,311,2.0,4.0,82,0.00,,---,0.00,VWS V12.07,2013-03-04 07:32:00,
2013-03-04 02:37:00,19.7,15.4,30.10,NW,311,2.0,4.0,83,0.00,,---,0.00,VWS V12.07,2013-03-04 07:37:00,
2013-03-04 02:42:00,19.7,15.4,30.10,NW,311,2.0,4.0,83,0.00,,---,0.00,VWS V12.07,2013-03-04 07:42:00,
2013-03-04 02:47:00,19.7,15.4,30.10,NW,311,2.0,4.0,83,0.00,,---,0.00,VWS V12.07,2013-03-04 07:47:00,
2013-03-04 02:52:00,19.5,15.2,30.10,NW,311,2.0,4.0,83,0.00,,---,0.00,VWS V12.07,2013-03-04 07:52:00,
2013-03-04 02:57:00,19.5,15.2,30.10,NW,311,2.0,4.0,83,0.00,,---,0.00,VWS V12.07,2013-03-04 07:57:00,
2013-03-04 03:02:00,19.4,15.1,30.10,NW,311,2.0,4.0,83,0.00,,---,0.00,VWS V12.07,2013-03-04 08:02:00,
2013-03-04 03:07:00,19.2,14.9,30.10,NW,311,2.0,4.0,83,0.00,,---,0.00,VWS V12.07,2013-03-04 08:07:00,
2013-03-04 03:12:00,19.1,14.8,30.10,NW,311,2.0,4.0,83,0.00,,---,0.00,VWS V12.07,2013-03-04 08:12:00,
2013-03-04 03:17:00,18.9,14.6,30.09,NW,311,2.0,4.0,83,0.00,,---,0.00,VWS V12.07,2013-03-04 08:17:00,
2013-03-04 03:22:00,18.6,14.3,30.09,NW,311,2.0,4.0,83,0.00,,---,0.00,VWS V12.07,2013-03-04 08:22:00,
2013-03-04 03:27:00,18.4,14.1,30.09,NW,311,2.0,4.0,83,0.00,,---,0.00,VWS V12.07,2013-03-04 08:27:00,
2013-03-04 03:32:00,18.4,14.1,30.10,NW,311,2.0,4.0,83,0.00,,---,0.00,VWS V12.07,2013-03-04 08:32:00,
2013-03-04 03:37:00,18.4,14.4,30.10,NW,311,2.0,4.0,84,0.00,,---,0.00,VWS V12.07,2013-03-04 08:37:00,
2013-03-04 03:42:00,18.6,14.6,30.10,NW,311,2.0,4.0,84,0.00,,---,0.00,VWS V12.07,2013-03-04 08:42:00,
2013-03-04 03:47:00,18.6,14.6,30.10,NW,311,2.0,4.0,84,0.00,,---,0.00,VWS V12.07,2013-03-04 08:47:00,
2013-03-04 03:52:00,18.6,14.6,30.10,NW,311,2.0,4.0,84,0.00,,---,0.00,VWS V12.07,2013-03-04 08:52:00,
2013-03-04 03:57:00,18.6,14.6,30.10,NW,311,2.0,4.0,84,0.00,,---,0.00,VWS V12.07,2013-03-04 08:57:00,
2013-03-04 04:02:00,18.6,14.6,30.10,NW,311,2.0,4.0,84,0.00,,---,0.00,VWS V12.07,2013-03-04 09:02:00,
2013-03-04 04:07:00,18.6,14.6,30.10,NW,311,2.0,4.0,84,0.00,,---,0.00,VWS V12.07,2013-03-04 09:07:00,
2013-03-04 04:12:00,18.6,14.6,30.10,NW,311,2.0,4.0,84,0.00,,---,0.00,VWS V12.07,2013-03-04 09:12:00,
2013-03-04 04:17:00,18.4,14.4,30.10,NW,311,2.0,4.0,84,0.00,,---,0.00,VWS V12.07,2013-03-04 09:17:00,
2013-03-04 04:22:00,18.4,14.4,30.10,NW,311,2.0,4.0,84,0.00,,---,0.00,VWS V12.07,2013-03-04 09:22:00,
2013-03-04 04:27:00,18.3,14.3,30.10,NW,311,2.0,4.0,84,0.00,,---,0.00,VWS V12.07,2013-03-04 09:27:00,
2013-03-04 04:32:00,18.1,14.1,30.11,NW,311,2.0,4.0,84,0.00,,---,0.00,VWS V12.07,2013-03-04 09:32:00,
2013-03-04 04:37:00,17.8,13.8,30.11,NW,311,2.0,4.0,84,0.00,,---,0.00,VWS V12.07,2013-03-04 09:37:00,
2013-03-04 04:42:00,17.8,13.8,30.11,NW,311,2.0,4.0,84,0.00,,---,0.00,VWS V12.07,2013-03-04 09:42:00,
2013-03-04 04:47:00,17.7,13.7,30.11,NW,311,2.0,4.0,84,0.00,,---,0.00,VWS V12.07,2013-03-04 09:47:00,
2013-03-04 04:52:00,17.5,13.5,30.11,NW,311,2.0,4.0,84,0.00,,---,0.00,VWS V12.07,2013-03-04 09:52:00,
2013-03-04 04:57:00,17.5,13.5,30.11,NW,311,2.0,4.0,84,0.00,,---,0.00,VWS V12.07,2013-03-04 09:57:00,
2013-03-04 05:02:00,17.5,13.5,30.11,NW,311,2.0,4.0,84,0.00,,---,0.00,VWS V12.07,2013-03-04 10:02:00,
2013-03-04 05:07:00,17.3,13.3,30.11,NW,311,2.0,4.0,84,0.00,,---,0.00,VWS V12.07,2013-03-04 10:07:00,
2013-03-04 05:12:00,17.2,13.2,30.11,NW,311,2.0,4.0,84,0.00,,---,0.00,VWS V12.07,2013-03-04 10:12:00,
2013-03-04 05:17:00,17.0,13.0,30.12,NW,311,2.0,4.0,84,0.00,,---,0.00,VWS V12.07,2013-03-04 10:17:00,
2013-03-04 05:22:00,17.0,13.0,30.12,NW,311,2.0,4.0,84,0.00,,---,0.00,VWS V12.07,2013-03-04 10:22:00,
2013-03-04 05:27:00,16.9,12.9,30.12,NW,311,2.0,4.0,84,0.00,,---,0.00,VWS V12.07,2013-03-04 10:27:00,
2013-03-04 05:32:00,16.9,12.9,30.13,NW,311,2.0,4.0,84,0.00,,---,0.00,VWS V12.07,2013-03-04 10:32:00,
2013-03-04 05:37:00,16.7,12.7,30.13,NW,311,2.0,4.0,84,0.00,,---,0.00,VWS V12.07,2013-03-04 10:37:00,
2013-03-04 05:42:00,16.9,13.2,30.13,NW,311,2.0,4.0,85,0.00,,---,0.00,VWS V12.07,2013-03-04 10:42:00,
2013-03-04 05:47:00,16.9,13.2,30.13,NW,311,2.0,4.0,85,0.00,,---,0.00,VWS V12.07,2013-03-04 10:47:00,
2013-03-04 05:53:00,16.9,13.2,30.13,NW,311,2.0,4.0,85,0.00,,---,0.00,VWS V12.07,2013-03-04 10:53:00,
2013-03-04 05:58:00,17.0,13.3,30.13,NW,311,2.0,4.0,85,0.00,,---,0.00,VWS V12.07,2013-03-04 10:58:00,
2013-03-04 06:03:00,17.0,13.3,30.13,NW,311,2.0,4.0,85,0.00,,---,0.00,VWS V12.07,2013-03-04 11:03:00,
2013-03-04 06:08:00,17.0,13.3,30.13,NW,311,2.0,4.0,85,0.00,,---,0.00,VWS V12.07,2013-03-04 11:08:00,
2013-03-04 06:13:00,16.9,13.2,30.13,NW,311,2.0,4.0,85,0.00,,---,0.00,VWS V12.07,2013-03-04 11:13:00,
2013-03-04 06:18:00,16.9,13.2,30.15,NW,311,2.0,4.0,85,0.00,,---,0.00,VWS V12.07,2013-03-04 11:18:00,
2013-03-04 06:23:00,16.7,13.0,30.15,NW,311,2.0,4.0,85,0.00,,---,0.00,VWS V12.07,2013-03-04 11:23:00,
2013-03-04 06:28:00,16.7,13.0,30.15,NW,311,2.0,4.0,85,0.00,,---,0.00,VWS V12.07,2013-03-04 11:28:00,
2013-03-04 06:33:00,16.7,13.0,30.15,NW,311,2.0,4.0,85,0.00,,---,0.00,VWS V12.07,2013-03-04 11:33:00,
2013-03-04 06:38:00,16.5,12.8,30.15,NW,311,2.0,4.0,85,0.00,,---,0.00,VWS V12.07,2013-03-04 11:38:00,
2013-03-04 06:43:00,16.5,12.8,30.15,NW,311,2.0,4.0,85,0.00,,---,0.00,VWS V12.07,2013-03-04 11:43:00,
2013-03-04 06:48:00,16.5,12.8,30.14,NW,311,2.0,4.0,85,0.00,,---,0.00,VWS V12.07,2013-03-04 11:48:00,
2013-03-04 06:53:00,16.5,12.8,30.14,NW,311,2.0,4.0,85,0.00,,---,0.00,VWS V12.07,2013-03-04 11:53:00,
2013-03-04 06:58:00,16.5,12.8,30.14,NW,311,2.0,4.0,85,0.00,,---,0.00,VWS V12.07,2013-03-04 11:58:00,
2013-03-04 07:03:00,16.5,12.8,30.15,NW,311,2.0,4.0,85,0.00,,---,0.00,VWS V12.07,2013-03-04 12:03:00,
2013-03-04 07:08:00,16.5,12.8,30.15,NW,311,2.0,4.0,85,0.00,,---,0.00,VWS V12.07,2013-03-04 12:08:00,
2013-03-04 07:13:00,16.5,12.8,30.15,NW,311,2.0,4.0,85,0.00,,---,0.00,VWS V12.07,2013-03-04 12:13:00,
2013-03-04 07:18:00,16.9,13.4,30.14,NW,311,2.0,4.0,86,0.00,,---,0.00,VWS V12.07,2013-03-04 12:18:00,
2013-03-04 07:23:00,17.2,13.7,30.14,NW,311,2.0,4.0,86,0.00,,---,0.00,VWS V12.07,2013-03-04 12:23:00,
2013-03-04 07:28:00,17.8,14.3,30.14,NW,311,2.0,4.0,86,0.00,,---,0.00,VWS V12.07,2013-03-04 12:28:00,
2013-03-04 07:33:00,18.6,15.4,30.14,NW,311,2.0,4.0,87,0.00,,---,0.00,VWS V12.07,2013-03-04 12:33:00,
2013-03-04 07:38:00,19.1,15.6,30.14,NW,311,2.0,4.0,86,0.00,,---,0.00,VWS V12.07,2013-03-04 12:38:00,
2013-03-04 07:43:00,19.7,16.2,30.14,NW,311,2.0,4.0,86,0.00,,---,0.00,VWS V12.07,2013-03-04 12:43:00,
2013-03-04 07:48:00,20.5,17.0,30.14,NW,311,2.0,5.0,86,0.00,,---,0.00,VWS V12.07,2013-03-04 12:48:00,
2013-03-04 07:53:00,21.4,17.9,30.14,NW,311,3.0,6.0,86,0.00,,---,0.00,VWS V12.07,2013-03-04 12:53:00,
2013-03-04 07:58:00,22.1,18.6,30.14,NW,317,6.0,8.0,86,0.00,,---,0.00,VWS V12.07,2013-03-04 12:58:00,
2013-03-04 08:03:00,22.4,18.3,30.14,NW,317,3.0,6.0,84,0.00,,---,0.00,VWS V12.07,2013-03-04 13:03:00,
2013-03-04 08:08:00,22.7,18.6,30.14,NW,317,2.0,4.0,84,0.00,,---,0.00,VWS V12.07,2013-03-04 13:08:00,
2013-03-04 08:13:00,23.0,18.9,30.14,NW,317,2.0,4.0,84,0.00,,---,0.00,VWS V12.07,2013-03-04 13:13:00,
2013-03-04 08:18:00,23.5,19.4,30.14,NW,317,3.0,6.0,84,0.00,,---,0.00,VWS V12.07,2013-03-04 13:18:00,
2013-03-04 08:23:00,23.8,19.7,30.14,NNW,333,2.0,5.0,84,0.00,,---,0.00,VWS V12.07,2013-03-04 13:23:00,
2013-03-04 08:28:00,24.2,20.1,30.14,NNW,333,2.0,4.0,84,0.00,,---,0.00,VWS V12.07,2013-03-04 13:28:00,
2013-03-04 08:33:00,24.5,20.1,30.15,NNW,333,2.0,4.0,83,0.00,,---,0.00,VWS V12.07,2013-03-04 13:33:00,
2013-03-04 08:38:00,24.8,20.4,30.15,NNW,333,2.0,4.0,83,0.00,,---,0.00,VWS V12.07,2013-03-04 13:38:00,
2013-03-04 08:43:00,25.0,20.3,30.15,NNW,333,2.0,4.0,82,0.00,,---,0.00,VWS V12.07,2013-03-04 13:43:00,
2013-03-04 08:48:00,25.3,20.6,30.15,NNW,333,2.0,4.0,82,0.00,,---,0.00,VWS V12.07,2013-03-04 13:48:00,
2013-03-04 08:53:00,25.6,20.9,30.15,NNW,333,2.0,4.0,82,0.00,,---,0.00,VWS V12.07,2013-03-04 13:53:00,
2013-03-04 08:58:00,26.0,21.3,30.15,NNW,333,2.0,4.0,82,0.00,,---,0.00,VWS V12.07,2013-03-04 13:58:00,
2013-03-04 09:03:00,26.4,21.7,30.15,NNW,333,2.0,4.0,82,0.00,,---,0.00,VWS V12.07,2013-03-04 14:03:00,
2013-03-04 09:08:00,26.6,21.6,30.15,NNW,345,4.0,7.0,81,0.00,,---,0.00,VWS V12.07,2013-03-04 14:08:00,
2013-03-04 09:13:00,26.7,21.4,30.15,NNE,16,4.0,8.0,80,0.00,,---,0.00,VWS V12.07,2013-03-04 14:13:00,
2013-03-04 09:18:00,27.3,22.0,30.15,NNE,16,3.0,7.0,80,0.00,,---,0.00,VWS V12.07,2013-03-04 14:18:00,
2013-03-04 09:23:00,27.8,22.1,30.15,East,79,2.0,6.0,79,0.00,,---,0.00,VWS V12.07,2013-03-04 14:23:00,
2013-03-04 09:28:00,28.2,22.2,30.15,NE,51,5.0,7.0,78,0.00,,---,0.00,VWS V12.07,2013-03-04 14:28:00,
2013-03-04 09:33:00,29.1,22.8,30.14,NE,41,3.0,7.0,77,0.00,,---,0.00,VWS V12.07,2013-03-04 14:33:00,
2013-03-04 09:38:00,29.5,22.2,30.14,NE,43,2.0,4.0,74,0.00,,---,0.00,VWS V12.07,2013-03-04 14:38:00,
2013-03-04 09:43:00,30.4,23.1,30.14,NE,54,2.0,7.0,74,0.00,,---,0.00,VWS V12.07,2013-03-04 14:43:00,
2013-03-04 09:49:00,30.7,22.8,30.13,NE,52,2.0,6.0,72,0.00,,---,0.00,VWS V12.07,2013-03-04 14:49:00,
2013-03-04 09:54:00,31.8,23.5,30.13,ENE,59,8.0,11.0,71,0.00,,---,0.00,VWS V12.07,2013-03-04 14:54:00,
2013-03-04 09:59:00,31.9,22.9,30.13,NE,56,6.0,12.0,69,0.00,,---,0.00,VWS V12.07,2013-03-04 14:59:00,
2013-03-04 10:04:00,31.9,22.2,30.13,ENE,71,5.0,9.0,67,0.00,,---,0.00,VWS V12.07,2013-03-04 15:04:00,
2013-03-04 10:09:00,32.4,22.7,30.13,SE,128,5.0,8.0,67,0.00,,---,0.00,VWS V12.07,2013-03-04 15:09:00,
2013-03-04 10:14:00,32.7,21.9,30.13,ENE,64,5.0,9.0,64,0.00,,---,0.00,VWS V12.07,2013-03-04 15:14:00,
2013-03-04 10:19:00,33.2,22.0,30.13,ENE,64,7.0,9.0,63,0.00,,---,0.00,VWS V12.07,2013-03-04 15:19:00,
2013-03-04 10:24:00,33.7,21.3,30.13,ENE,64,4.0,9.0,60,0.00,,---,0.00,VWS V12.07,2013-03-04 15:24:00,
2013-03-04 10:29:00,34.6,22.5,30.13,NE,52,5.0,10.0,61,0.00,,---,0.00,VWS V12.07,2013-03-04 15:29:00,
2013-03-04 10:34:00,35.3,20.8,30.12,ENE,64,9.0,13.0,55,0.00,,---,0.00,VWS V12.07,2013-03-04 15:34:00,
2013-03-04 10:39:00,35.3,21.2,30.12,ESE,104,8.0,10.0,56,0.00,,---,0.00,VWS V12.07,2013-03-04 15:39:00,
2013-03-04 10:44:00,35.8,19.5,30.12,East,93,6.0,12.0,51,0.00,,---,0.00,VWS V12.07,2013-03-04 15:44:00,
2013-03-04 10:49:00,35.8,19.5,30.12,ENE,65,4.0,10.0,51,0.00,,---,0.00,VWS V12.07,2013-03-04 15:49:00,
2013-03-04 10:54:00,36.0,20.5,30.12,NE,44,2.0,8.0,53,0.00,,---,0.00,VWS V12.07,2013-03-04 15:54:00,
2013-03-04 10:59:00,36.9,20.5,30.12,ENE,75,8.0,10.0,51,0.00,,---,0.00,VWS V12.07,2013-03-04 15:59:00,
2013-03-04 11:04:00,36.9,20.0,30.12,East,83,4.0,9.0,50,0.00,,---,0.00,VWS V12.07,2013-03-04 16:04:00,
2013-03-04 11:09:00,37.6,21.6,30.12,East,83,3.0,7.0,52,0.00,,---,0.00,VWS V12.07,2013-03-04 16:09:00,
2013-03-04 11:14:00,38.0,19.1,30.12,ENE,77,5.0,8.0,46,0.00,,---,0.00,VWS V12.07,2013-03-04 16:14:00,
2013-03-04 11:19:00,38.2,20.7,30.11,NE,37,5.0,9.0,49,0.00,,---,0.00,VWS V12.07,2013-03-04 16:19:00,
2013-03-04 11:24:00,38.8,23.1,30.11,NNE,27,6.0,9.0,53,0.00,,---,0.00,VWS V12.07,2013-03-04 16:24:00,
2013-03-04 11:29:00,39.1,21.1,30.11,ENE,70,7.0,12.0,48,0.00,,---,0.00,VWS V12.07,2013-03-04 16:29:00,
2013-03-04 11:34:00,38.9,19.4,30.11,NE,36,7.0,9.0,45,0.00,,---,0.00,VWS V12.07,2013-03-04 16:34:00,
2013-03-04 11:39:00,39.9,19.2,30.11,North,1,2.0,8.0,43,0.00,,---,0.00,VWS V12.07,2013-03-04 16:39:00,
2013-03-04 11:44:00,40.1,21.0,30.11,ENE,60,5.0,8.0,46,0.00,,---,0.00,VWS V12.07,2013-03-04 16:44:00,
2013-03-04 11:49:00,40.2,21.6,30.10,ENE,70,4.0,10.0,47,0.00,,---,0.00,VWS V12.07,2013-03-04 16:49:00,
2013-03-04 11:54:00,40.1,21.0,30.10,NE,50,7.0,9.0,46,0.00,,---,0.00,VWS V12.07,2013-03-04 16:54:00,
2013-03-04 11:59:00,40.5,21.4,30.10,ENE,62,8.0,11.0,46,0.00,,---,0.00,VWS V12.07,2013-03-04 16:59:00,
2013-03-04 12:04:00,40.2,17.8,30.10,NE,56,8.0,11.0,40,0.00,,---,0.00,VWS V12.07,2013-03-04 17:04:00,
2013-03-04 12:09:00,40.1,18.3,30.10,ESE,120,3.0,7.0,41,0.00,,---,0.00,VWS V12.07,2013-03-04 17:09:00,
2013-03-04 12:14:00,39.9,19.8,30.10,ENE,63,6.0,10.0,44,0.00,,---,0.00,VWS V12.07,2013-03-04 17:14:00,
2013-03-04 12:19:00,40.3,17.9,30.09,East,83,7.0,10.0,40,0.00,,---,0.00,VWS V12.07,2013-03-04 17:19:00,
2013-03-04 12:24:00,40.5,17.5,30.09,NE,54,2.0,8.0,39,0.00,,---,0.00,VWS V12.07,2013-03-04 17:24:00,
2013-03-04 12:29:00,41.1,15.6,30.09,East,83,7.0,13.0,35,0.00,,---,0.00,VWS V12.07,2013-03-04 17:29:00,
2013-03-04 12:34:00,41.3,16.4,30.08,NNE,19,8.0,11.0,36,0.00,,---,0.00,VWS V12.07,2013-03-04 17:34:00,
2013-03-04 12:39:00,41.8,16.2,30.08,ENE,60,5.0,10.0,35,0.00,,---,0.00,VWS V12.07,2013-03-04 17:39:00,
2013-03-04 12:44:00,41.8,16.8,30.08,ENE,67,5.0,9.0,36,0.00,,---,0.00,VWS V12.07,2013-03-04 17:44:00,
2013-03-04 12:49:00,41.9,15.6,30.07,NE,50,5.0,8.0,34,0.00,,---,0.00,VWS V12.07,2013-03-04 17:49:00,
2013-03-04 12:54:00,42.2,13.0,30.07,East,89,7.0,13.0,30,0.00,,---,0.00,VWS V12.07,2013-03-04 17:54:00,
2013-03-04 12:59:00,42.2,11.4,30.07,SE,144,6.0,10.0,28,0.00,,---,0.00,VWS V12.07,2013-03-04 17:59:00,
2013-03-04 13:04:00,42.1,13.7,30.07,East,90,8.0,14.0,31,0.00,,---,0.00,VWS V12.07,2013-03-04 18:04:00,
2013-03-04 13:09:00,42.1,15.8,30.07,NE,38,7.0,9.0,34,0.00,,---,0.00,VWS V12.07,2013-03-04 18:09:00,
2013-03-04 13:14:00,42.5,15.4,30.07,ESE,117,5.0,11.0,33,0.00,,---,0.00,VWS V12.07,2013-03-04 18:14:00,
2013-03-04 13:19:00,42.8,14.3,30.05,ESE,122,5.0,10.0,31,0.00,,---,0.00,VWS V12.07,2013-03-04 18:19:00,
2013-03-04 13:24:00,42.9,17.1,30.05,ENE,63,5.0,8.0,35,0.00,,---,0.00,VWS V12.07,2013-03-04 18:24:00,
2013-03-04 13:29:00,43.1,19.8,30.05,SSE,158,5.0,10.0,39,0.00,,---,0.00,VWS V12.07,2013-03-04 18:29:00,
2013-03-04 13:30:00,43.1,15.3,30.04,SE,145,2.0,4.0,32,0.00,,---,0.00,VWS V12.07,2013-03-04 18:30:00,
2013-03-04 13:31:00,43.1,16.0,30.04,SE,125,4.0,6.0,33,0.00,,---,0.00,VWS V12.07,2013-03-04 18:31:00,
2013-03-04 13:32:00,43.1,16.7,30.04,ESE,106,2.0,6.0,34,0.00,,---,0.00,VWS V12.07,2013-03-04 18:32:00,
2013-03-04 13:37:00,42.9,16.5,30.04,NE,41,2.0,4.0,34,0.00,,---,0.00,VWS V12.07,2013-03-04 18:37:00,
2013-03-04 13:41:00,43.2,18.1,30.04,ESE,109,3.0,9.0,36,0.00,,---,0.00,VWS V12.07,2013-03-04 18:41:00,
2013-03-04 13:46:00,43.5,17.7,30.03,ESE,111,6.0,9.0,35,0.00,,---,0.00,VWS V12.07,2013-03-04 18:46:00,
2013-03-04 13:51:00,44.2,18.3,30.03,ENE,64,7.0,9.0,35,0.00,,---,0.00,VWS V12.07,2013-03-04 18:51:00,
2013-03-04 13:56:00,44.9,17.6,30.03,NE,36,3.0,5.0,33,0.00,,---,0.00,VWS V12.07,2013-03-04 18:56:00,
2013-03-04 14:01:00,45.5,18.8,30.02,NNE,14,5.0,8.0,34,0.00,,---,0.00,VWS V12.07,2013-03-04 19:01:00,
2013-03-04 14:06:00,45.7,17.5,30.02,ENE,72,5.0,15.0,32,0.00,,---,0.00,VWS V12.07,2013-03-04 19:06:00,
2013-03-04 14:11:00,45.1,17.7,30.02,ENE,68,4.0,9.0,33,0.00,,---,0.00,VWS V12.07,2013-03-04 19:11:00,
2013-03-04 14:16:00,44.5,15.8,30.02,NNE,33,2.0,9.0,31,0.00,,---,0.00,VWS V12.07,2013-03-04 19:16:00,
2013-03-04 14:21:00,44.8,15.3,30.02,East,86,6.0,8.0,30,0.00,,---,0.00,VWS V12.07,2013-03-04 19:21:00,
2013-03-04 14:27:00,44.5,16.5,30.02,ENE,64,4.0,11.0,32,0.00,,---,0.00,VWS V12.07,2013-03-04 19:27:00,
2013-03-04 14:33:00,44.3,18.4,30.02,NNE,29,3.0,6.0,35,0.00,,---,0.00,VWS V12.07,2013-03-04 19:33:00,
2013-03-04 14:38:00,44.5,17.2,30.02,ESE,113,5.0,7.0,33,0.00,,---,0.00,VWS V12.07,2013-03-04 19:38:00,
2013-03-04 14:44:00,44.5,16.5,30.02,ESE,116,6.0,8.0,32,0.00,,---,0.00,VWS V12.07,2013-03-04 19:44:00,
2013-03-04 14:49:00,44.3,15.6,30.01,SSE,151,7.0,9.0,31,0.00,,---,0.00,VWS V12.07,2013-03-04 19:49:00,
2013-03-04 14:54:00,44.5,16.5,30.01,ESE,111,4.0,6.0,32,0.00,,---,0.00,VWS V12.07,2013-03-04 19:54:00,
2013-03-04 14:59:00,44.6,18.0,30.01,NE,41,5.0,9.0,34,0.00,,---,0.00,VWS V12.07,2013-03-04 19:59:00,
2013-03-04 15:04:00,44.6,20.0,30.00,NE,45,5.0,10.0,37,0.00,,---,0.00,VWS V12.07,2013-03-04 20:04:00,
2013-03-04 15:09:00,44.5,18.6,30.00,NE,54,2.0,8.0,35,0.00,,---,0.00,VWS V12.07,2013-03-04 20:09:00,
2013-03-04 15:14:00,44.6,18.0,30.00,NE,52,4.0,8.0,34,0.00,,---,0.00,VWS V12.07,2013-03-04 20:14:00,
2013-03-04 15:19:00,44.5,18.6,30.00,NNE,30,6.0,10.0,35,0.00,,---,0.00,VWS V12.07,2013-03-04 20:19:00,
2013-03-04 15:24:00,44.5,19.9,30.00,NNE,25,2.0,6.0,37,0.00,,---,0.00,VWS V12.07,2013-03-04 20:24:00,
2013-03-04 15:30:00,44.3,18.4,30.00,NE,44,2.0,6.0,35,0.00,,---,0.00,VWS V12.07,2013-03-04 20:30:00,
2013-03-04 15:36:00,44.5,20.5,30.00,NE,43,5.0,7.0,38,0.00,,---,0.00,VWS V12.07,2013-03-04 20:36:00,
2013-03-04 15:41:00,44.6,18.7,30.00,NNE,19,5.0,8.0,35,0.00,,---,0.00,VWS V12.07,2013-03-04 20:41:00,
2013-03-04 15:46:00,44.9,19.6,29.99,NNE,29,6.0,8.0,36,0.00,,---,0.00,VWS V12.07,2013-03-04 20:46:00,
2013-03-04 15:51:00,45.1,18.4,29.99,NE,43,5.0,8.0,34,0.00,,---,0.00,VWS V12.07,2013-03-04 20:51:00,
2013-03-04 15:57:00,45.2,19.9,29.99,NE,34,7.0,10.0,36,0.00,,---,0.00,VWS V12.07,2013-03-04 20:57:00,
2013-03-04 16:02:00,45.4,19.4,29.98,NE,47,4.0,10.0,35,0.00,,---,0.00,VWS V12.07,2013-03-04 21:02:00,
2013-03-04 16:08:00,45.5,18.8,29.98,NE,41,6.0,8.0,34,0.00,,---,0.00,VWS V12.07,2013-03-04 21:08:00,
2013-03-04 16:14:00,45.8,19.0,29.98,NNE,30,5.0,11.0,34,0.00,,---,0.00,VWS V12.07,2013-03-04 21:14:00,
2013-03-04 16:19:00,46.1,20.6,29.98,NNE,32,7.0,11.0,36,0.00,,---,0.00,VWS V12.07,2013-03-04 21:19:00,
2013-03-04 16:24:00,46.4,20.9,29.98,NNE,33,7.0,13.0,36,0.00,,---,0.00,VWS V12.07,2013-03-04 21:24:00,
2013-03-04 16:29:00,46.1,20.0,29.98,NE,50,5.0,10.0,35,0.00,,---,0.00,VWS V12.07,2013-03-04 21:29:00,
2013-03-04 16:34:00,46.1,20.0,29.98,NNE,29,5.0,7.0,35,0.00,,---,0.00,VWS V12.07,2013-03-04 21:34:00,
2013-03-04 16:39:00,46.0,18.5,29.98,NE,45,5.0,10.0,33,0.00,,---,0.00,VWS V12.07,2013-03-04 21:39:00,
2013-03-04 16:44:00,46.0,19.9,29.98,NE,49,8.0,13.0,35,0.00,,---,0.00,VWS V12.07,2013-03-04 21:44:00,
2013-03-04 16:49:00,46.0,20.6,29.97,NNE,31,6.0,9.0,36,0.00,,---,0.00,VWS V12.07,2013-03-04 21:49:00,
2013-03-04 16:54:00,46.1,19.3,29.97,ENE,78,4.0,8.0,34,0.00,,---,0.00,VWS V12.07,2013-03-04 21:54:00,
2013-03-04 16:59:00,46.4,22.2,29.97,NE,45,6.0,9.0,38,0.00,,---,0.00,VWS V12.07,2013-03-04 21:59:00,
2013-03-04 17:04:00,46.5,20.3,29.97,ENE,70,5.0,8.0,35,0.00,,---,0.00,VWS V12.07,2013-03-04 22:04:00,
2013-03-04 17:09:00,46.8,20.6,29.97,NNE,27,6.0,8.0,35,0.00,,---,0.00,VWS V12.07,2013-03-04 22:09:00,
2013-03-04 17:14:00,47.0,20.8,29.97,NE,41,8.0,14.0,35,0.00,,---,0.00,VWS V12.07,2013-03-04 22:14:00,
2013-03-04 17:20:00,46.5,21.6,29.96,NE,41,12.0,14.0,37,0.00,,---,0.00,VWS V12.07,2013-03-04 22:20:00,
2013-03-04 17:25:00,46.1,20.6,29.96,NNW,347,12.0,15.0,36,0.00,,---,0.00,VWS V12.07,2013-03-04 22:25:00,
2013-03-04 17:30:00,46.0,20.6,29.96,NNE,23,10.0,12.0,36,0.00,,---,0.00,VWS V12.07,2013-03-04 22:30:00,
2013-03-04 17:36:00,45.7,20.3,29.96,North,6,4.0,10.0,36,0.00,,---,0.00,VWS V12.07,2013-03-04 22:36:00,
2013-03-04 17:42:00,45.5,20.8,29.96,NNE,28,9.0,13.0,37,0.00,,---,0.00,VWS V12.07,2013-03-04 22:42:00,
2013-03-04 17:48:00,45.4,21.3,29.95,NNE,18,7.0,13.0,38,0.00,,---,0.00,VWS V12.07,2013-03-04 22:48:00,
2013-03-04 17:54:00,45.4,21.9,29.95,NNE,20,9.0,11.0,39,0.00,,---,0.00,VWS V12.07,2013-03-04 22:54:00,
2013-03-04 17:59:00,45.2,21.1,29.95,NNE,27,5.0,9.0,38,0.00,,---,0.00,VWS V12.07,2013-03-04 22:59:00,
2013-03-04 18:04:00,45.2,20.5,29.96,NNE,20,2.0,8.0,37,0.00,,---,0.00,VWS V12.07,2013-03-04 23:04:00,
2013-03-04 18:09:00,45.2,21.7,29.96,NNE,18,5.0,7.0,39,0.00,,---,0.00,VWS V12.07,2013-03-04 23:09:00,
2013-03-04 18:14:00,44.9,22.1,29.96,NNE,16,6.0,8.0,40,0.00,,---,0.00,VWS V12.07,2013-03-04 23:14:00,
2013-03-04 18:20:00,44.5,22.3,29.95,NNE,26,3.0,7.0,41,0.00,,---,0.00,VWS V12.07,2013-03-04 23:20:00,
2013-03-04 18:25:00,44.1,21.9,29.95,NNE,20,4.0,9.0,41,0.00,,---,0.00,VWS V12.07,2013-03-04 23:25:00,
2013-03-04 18:30:00,43.9,21.2,29.95,North,1,5.0,9.0,40,0.00,,---,0.00,VWS V12.07,2013-03-04 23:30:00,
2013-03-04 18:36:00,43.6,21.5,29.95,North,6,4.0,7.0,41,0.00,,---,0.00,VWS V12.07,2013-03-04 23:36:00,
2013-03-04 18:42:00,43.2,21.7,29.95,NNE,12,5.0,7.0,42,0.00,,---,0.00,VWS V12.07,2013-03-04 23:42:00,
2013-03-04 18:47:00,42.8,21.9,29.95,NNE,13,5.0,8.0,43,0.00,,---,0.00,VWS V12.07,2013-03-04 23:47:00,
2013-03-04 18:52:00,42.6,22.2,29.95,NNE,16,5.0,8.0,44,0.00,,---,0.00,VWS V12.07,2013-03-04 23:52:00,
2013-03-04 18:57:00,42.3,22.0,29.95,NNE,18,5.0,9.0,44,0.00,,---,0.00,VWS V12.07,2013-03-04 23:57:00,
2013-03-04 19:02:00,42.2,21.9,29.95,North,356,4.0,8.0,44,0.00,,---,0.00,VWS V12.07,2013-03-05 00:02:00,
2013-03-04 19:07:00,42.1,22.3,29.95,North,1,4.0,7.0,45,0.00,,---,0.00,VWS V12.07,2013-03-05 00:07:00,
2013-03-04 19:12:00,41.9,22.1,29.95,North,1,3.0,7.0,45,0.00,,---,0.00,VWS V12.07,2013-03-05 00:12:00,
2013-03-04 19:17:00,41.8,22.5,29.94,North,6,4.0,6.0,46,0.00,,---,0.00,VWS V12.07,2013-03-05 00:17:00,
2013-03-04 19:22:00,41.5,22.8,29.94,NNE,12,6.0,9.0,47,0.00,,---,0.00,VWS V12.07,2013-03-05 00:22:00,
2013-03-04 19:27:00,41.2,23.0,29.94,North,6,4.0,7.0,48,0.00,,---,0.00,VWS V12.07,2013-03-05 00:27:00,
2013-03-04 19:32:00,41.1,22.4,29.94,North,6,4.0,7.0,47,0.00,,---,0.00,VWS V12.07,2013-03-05 00:32:00,
2013-03-04 19:37:00,40.9,23.2,29.94,North,6,3.0,8.0,49,0.00,,---,0.00,VWS V12.07,2013-03-05 00:37:00,
2013-03-04 19:42:00,40.8,23.1,29.94,NNE,19,5.0,8.0,49,0.00,,---,0.00,VWS V12.07,2013-03-05 00:42:00,
2013-03-04 19:48:00,40.9,22.7,29.93,North,6,6.0,9.0,48,0.00,,---,0.00,VWS V12.07,2013-03-05 00:48:00,
2013-03-04 19:53:00,41.3,22.6,29.93,NNE,18,3.0,9.0,47,0.00,,---,0.00,VWS V12.07,2013-03-05 00:53:00,
2013-03-04 19:59:00,41.5,22.8,29.93,NNE,13,6.0,8.0,47,0.00,,---,0.00,VWS V12.07,2013-03-05 00:59:00,
2013-03-04 20:04:00,41.6,23.9,29.94,NNE,16,2.0,7.0,49,0.00,,---,0.00,VWS V12.07,2013-03-05 01:04:00,
2013-03-04 20:10:00,41.6,22.9,29.94,North,1,9.0,11.0,47,0.00,,---,0.00,VWS V12.07,2013-03-05 01:10:00,
2013-03-04 20:15:00,41.8,23.1,29.94,NNE,20,5.0,9.0,47,0.00,,---,0.00,VWS V12.07,2013-03-05 01:15:00,
2013-03-04 20:20:00,41.9,22.6,29.93,NNE,29,4.0,10.0,46,0.00,,---,0.00,VWS V12.07,2013-03-05 01:20:00,
2013-03-04 20:25:00,41.9,23.2,29.93,NNE,29,8.0,10.0,47,0.00,,---,0.00,VWS V12.07,2013-03-05 01:25:00,
2013-03-04 20:30:00,41.9,23.2,29.93,NE,37,6.0,8.0,47,0.00,,---,0.00,VWS V12.07,2013-03-05 01:30:00,
2013-03-04 20:36:00,41.9,22.6,29.93,NNE,24,3.0,9.0,46,0.00,,---,0.00,VWS V12.07,2013-03-05 01:36:00,
2013-03-04 20:41:00,41.9,22.6,29.93,North,10,5.0,7.0,46,0.00,,---,0.00,VWS V12.07,2013-03-05 01:41:00,
2013-03-04 20:46:00,41.9,22.6,29.94,North,10,2.0,7.0,46,0.00,,---,0.00,VWS V12.07,2013-03-05 01:46:00,
2013-03-04 20:51:00,41.9,22.6,29.94,North,10,2.0,4.0,46,0.00,,---,0.00,VWS V12.07,2013-03-05 01:51:00,
2013-03-04 20:56:00,41.9,23.7,29.94,North,10,2.0,4.0,48,0.00,,---,0.00,VWS V12.07,2013-03-05 01:56:00,
2013-03-04 21:01:00,41.8,24.1,29.95,North,10,2.0,4.0,49,0.00,,---,0.00,VWS V12.07,2013-03-05 02:01:00,
2013-03-04 21:07:00,41.5,24.3,29.95,North,10,2.0,4.0,50,0.00,,---,0.00,VWS V12.07,2013-03-05 02:07:00,
2013-03-04 21:12:00,41.3,24.5,29.95,North,10,2.0,4.0,51,0.00,,---,0.00,VWS V12.07,2013-03-05 02:12:00,
2013-03-04 21:17:00,41.2,24.9,29.95,North,10,2.0,4.0,52,0.00,,---,0.00,VWS V12.07,2013-03-05 02:17:00,
2013-03-04 21:22:00,41.3,24.1,29.95,North,10,2.0,4.0,50,0.00,,---,0.00,VWS V12.07,2013-03-05 02:22:00,
2013-03-04 21:27:00,41.8,24.1,29.95,North,10,2.0,4.0,49,0.00,,---,0.00,VWS V12.07,2013-03-05 02:27:00,
2013-03-04 21:32:00,41.9,24.6,29.95,North,10,3.0,6.0,50,0.00,,---,0.00,VWS V12.07,2013-03-05 02:32:00,
2013-03-04 21:38:00,42.2,24.4,29.95,North,10,4.0,7.0,49,0.00,,---,0.00,VWS V12.07,2013-03-05 02:38:00,
2013-03-04 21:43:00,42.5,26.1,29.95,North,10,2.0,4.0,52,0.00,,---,0.00,VWS V12.07,2013-03-05 02:43:00,
2013-03-04 21:49:00,42.6,24.3,29.95,NNE,14,2.0,4.0,48,0.00,,---,0.00,VWS V12.07,2013-03-05 02:49:00,
2013-03-04 21:54:00,42.8,24.0,29.95,NNE,14,2.0,4.0,47,0.00,,---,0.00,VWS V12.07,2013-03-05 02:54:00,
2013-03-04 21:59:00,42.8,24.5,29.95,NNE,14,2.0,5.0,48,0.00,,---,0.00,VWS V12.07,2013-03-05 02:59:00,
2013-03-04 22:04:00,42.9,25.1,29.95,NNE,14,2.0,4.0,49,0.00,,---,0.00,VWS V12.07,2013-03-05 03:04:00,
2013-03-04 22:09:00,42.9,24.6,29.95,NNE,14,2.0,4.0,48,0.00,,---,0.00,VWS V12.07,2013-03-05 03:09:00,
2013-03-04 22:14:00,42.9,24.6,29.95,NNE,14,2.0,4.0,48,0.00,,---,0.00,VWS V12.07,2013-03-05 03:14:00,
2013-03-04 22:19:00,43.1,24.3,29.94,NNE,14,2.0,4.0,47,0.00,,---,0.00,VWS V12.07,2013-03-05 03:19:00,
2013-03-04 22:25:00,42.9,25.6,29.94,NNE,14,2.0,5.0,50,0.00,,---,0.00,VWS V12.07,2013-03-05 03:25:00,
2013-03-04 22:30:00,42.8,25.0,29.95,NNE,14,2.0,4.0,49,0.00,,---,0.00,VWS V12.07,2013-03-05 03:30:00,
2013-03-04 22:36:00,43.1,23.7,29.95,NE,48,2.0,4.0,46,0.00,,---,0.00,VWS V12.07,2013-03-05 03:36:00,
2013-03-04 22:42:00,43.2,24.9,29.95,NE,48,2.0,4.0,48,0.00,,---,0.00,VWS V12.07,2013-03-05 03:42:00,
2013-03-04 22:47:00,43.2,24.4,29.95,NE,48,2.0,4.0,47,0.00,,---,0.00,VWS V12.07,2013-03-05 03:47:00,
2013-03-04 22:52:00,43.2,23.8,29.95,NE,48,2.0,4.0,46,0.00,,---,0.00,VWS V12.07,2013-03-05 03:52:00,
2013-03-04 22:57:00,43.2,23.8,29.95,NE,48,2.0,4.0,46,0.00,,---,0.00,VWS V12.07,2013-03-05 03:57:00,
2013-03-04 23:03:00,43.2,24.9,29.95,WSW,242,7.0,9.0,48,0.00,,---,0.00,VWS V12.07,2013-03-05 04:03:00,
2013-03-04 23:08:00,42.9,27.0,29.95,North,356,5.0,8.0,53,0.00,,---,0.00,VWS V12.07,2013-03-05 04:08:00,
2013-03-04 23:13:00,42.5,29.2,29.95,North,356,2.0,4.0,59,0.00,,---,0.00,VWS V12.07,2013-03-05 04:13:00,
2013-03-04 23:18:00,41.9,29.9,29.93,NNE,20,5.0,9.0,62,0.00,,---,0.00,VWS V12.07,2013-03-05 04:18:00,
2013-03-04 23:23:00,41.5,28.3,29.93,NNE,19,5.0,8.0,59,0.00,,---,0.00,VWS V12.07,2013-03-05 04:23:00,
2013-03-04 23:28:00,41.5,28.7,29.93,North,11,6.0,10.0,60,0.00,,---,0.00,VWS V12.07,2013-03-05 04:28:00,
2013-03-04 23:34:00,41.5,27.8,29.92,North,10,2.0,4.0,58,0.00,,---,0.00,VWS V12.07,2013-03-05 04:34:00,
2013-03-04 23:39:00,41.5,29.5,29.92,North,10,2.0,4.0,62,0.00,,---,0.00,VWS V12.07,2013-03-05 04:39:00,
2013-03-04 23:44:00,41.5,29.1,29.92,North,10,2.0,4.0,61,0.00,,---,0.00,VWS V12.07,2013-03-05 04:44:00,
2013-03-04 23:49:00,41.3,28.1,29.92,North,10,2.0,4.0,59,0.00,,---,0.00,VWS V12.07,2013-03-05 04:49:00,
2013-03-04 23:54:00,41.3,28.1,29.92,North,10,2.0,4.0,59,0.00,,---,0.00,VWS V12.07,2013-03-05 04:54:00,
2013-03-04 23:59:00,41.5,28.7,29.92,North,10,2.0,4.0,60,0.00,,---,0.00,VWS V12.07,2013-03-05 04:59:00,